Time;durP1;ratioP1;P1;durP2;ratioP2;P2;SDS_P1;SDS_P2;PMS_P1;PMS_P2;Temp;Humidity;BMP_temperature;BMP_pressure;BME280_temperature;BME280_humidity;BME280_pressure;Samples;Min_cycle;Max_cycle;Signal;HPM_P1;HPM_P2
2022/05/02 00:00:08;;;;;;;9.37;6.73;;;6.00;99.90;;;;;;5051134;28;20036;-35
2022/05/02 00:02:35;;;;;;;8.60;6.63;;;6.00;99.90;;;;;;5065943;28;20131;-35
2022/05/02 00:05:01;;;;;;;12.10;6.67;;;5.90;99.90;;;;;;5051780;28;20047;-35
2022/05/02 00:07:26;;;;;;;9.90;6.53;;;5.90;99.90;;;;;;5042771;28;20040;-35
2022/05/02 00:09:52;;;;;;;9.43;7.00;;;5.90;99.90;;;;;;5063119;28;20519;-35
2022/05/02 00:12:18;;;;;;;13.23;8.07;;;5.80;99.90;;;;;;5047287;28;20051;-35
2022/05/02 00:14:43;;;;;;;12.23;7.70;;;5.80;99.90;;;;;;5050825;28;20610;-35
2022/05/02 00:17:09;;;;;;;8.90;6.50;;;5.80;99.90;;;;;;5051903;28;20044;-35
2022/05/02 00:19:35;;;;;;;9.00;6.67;;;5.80;99.90;;;;;;5067437;28;20045;-35
2022/05/02 00:22:01;;;;;;;10.03;7.17;;;5.80;99.90;;;;;;5067850;28;20072;-35
2022/05/02 00:24:27;;;;;;;12.93;7.97;;;5.70;99.90;;;;;;5066643;28;20412;-35
2022/05/02 00:26:52;;;;;;;11.33;7.90;;;5.70;99.90;;;;;;5038690;28;20095;-35
2022/05/02 00:29:18;;;;;;;12.23;7.80;;;5.60;99.90;;;;;;5046550;28;20162;-35
2022/05/02 00:31:45;;;;;;;11.50;6.90;;;5.60;99.90;;;;;;5047674;28;20068;-35
2022/05/02 00:34:12;;;;;;;11.40;7.17;;;5.60;99.90;;;;;;5046778;28;20048;-35
2022/05/02 00:36:38;;;;;;;9.60;7.13;;;5.50;99.90;;;;;;5034013;28;20664;-35
2022/05/02 00:39:04;;;;;;;12.30;7.23;;;5.50;99.90;;;;;;5047367;28;20075;-35
2022/05/02 00:41:30;;;;;;;8.83;6.83;;;5.50;99.90;;;;;;5051369;28;20037;-35
2022/05/02 00:43:56;;;;;;;11.10;7.47;;;5.50;99.90;;;;;;5069837;28;20355;-35
2022/05/02 00:46:24;;;;;;;10.67;7.17;;;5.50;99.90;;;;;;5059556;28;20102;-36
2022/05/02 00:48:50;;;;;;;9.63;6.77;;;5.40;99.90;;;;;;5062581;28;20053;-35
2022/05/02 00:51:17;;;;;;;11.97;7.80;;;5.30;99.90;;;;;;5048325;28;20118;-35
2022/05/02 00:53:49;;;;;;;11.07;8.23;;;5.30;99.90;;;;;;5048836;28;20521;-35
2022/05/02 00:56:20;;;;;;;10.93;7.47;;;5.30;99.90;;;;;;5052836;28;20078;-35
2022/05/02 00:58:46;;;;;;;;;;;5.30;99.90;;;;;;5066499;28;20260;-35
2022/05/02 01:01:11;;;;;;;13.43;7.57;;;5.20;99.90;;;;;;5056473;28;20015;-35
2022/05/02 01:03:37;;;;;;;9.90;7.73;;;5.20;99.90;;;;;;5050643;28;20136;-35
2022/05/02 01:08:47;;;;;;;10.90;7.83;;;5.20;99.90;;;;;;5040023;28;20515;-35
2022/05/02 01:11:13;;;;;;;11.93;7.37;;;5.10;99.90;;;;;;5050979;28;20041;-35
2022/05/02 01:13:48;;;;;;;10.43;7.47;;;5.20;99.90;;;;;;5049180;28;20045;-35
2022/05/02 01:16:20;;;;;;;11.93;8.50;;;5.20;99.90;;;;;;5041583;28;20041;-35
2022/05/02 01:18:51;;;;;;;11.07;8.20;;;5.10;99.90;;;;;;5045911;28;20087;-35
2022/05/02 01:21:19;;;;;;;9.07;5.97;;;5.10;99.90;;;;;;5051002;28;20482;-35
2022/05/02 01:23:48;;;;;;;11.50;8.03;;;5.10;99.90;;;;;;5062686;28;20124;-35
2022/05/02 01:26:14;;;;;;;10.27;7.40;;;5.10;99.90;;;;;;5052546;28;20055;-35
2022/05/02 01:28:44;;;;;;;10.73;8.40;;;5.10;99.90;;;;;;5057181;28;20036;-35
2022/05/02 01:31:10;;;;;;;12.23;8.77;;;5.10;99.90;;;;;;5037884;28;20045;-35
2022/05/02 01:33:36;;;;;;;11.43;8.77;;;5.00;99.90;;;;;;5050048;28;20319;-35
2022/05/02 01:36:03;;;;;;;11.63;9.07;;;5.00;99.90;;;;;;5050516;28;20088;-35
2022/05/02 01:38:28;;;;;;;13.90;9.30;;;5.00;99.90;;;;;;5034002;28;20075;-35
2022/05/02 01:40:54;;;;;;;13.00;9.50;;;4.90;99.90;;;;;;5049072;28;20048;-35
2022/05/02 01:43:20;;;;;;;13.07;9.63;;;4.90;99.90;;;;;;5063451;28;20127;-35
2022/05/02 01:45:46;;;;;;;14.23;10.10;;;4.90;99.90;;;;;;5068953;28;20087;-35
2022/05/02 01:48:12;;;;;;;12.53;8.90;;;4.80;99.90;;;;;;5053278;28;20052;-35
2022/05/02 01:50:37;;;;;;;12.70;10.70;;;4.80;99.90;;;;;;5049857;28;20820;-35
2022/05/02 01:53:03;;;;;;;14.50;10.53;;;4.80;99.90;;;;;;5049963;28;20049;-35
2022/05/02 01:55:29;;;;;;;14.67;10.20;;;4.80;99.90;;;;;;5050246;28;20507;-35
2022/05/02 01:57:54;;;;;;;11.97;9.10;;;4.80;99.90;;;;;;5034449;28;20064;-35
2022/05/02 02:00:20;;;;;;;11.63;9.27;;;4.70;99.90;;;;;;5060777;28;20048;-35
2022/05/02 02:02:46;;;;;;;15.27;10.20;;;4.70;99.90;;;;;;5049611;28;20049;-35
2022/05/02 02:07:56;;;;;;;14.97;10.27;;;4.70;99.90;;;;;;5048737;28;20719;-35
2022/05/02 02:10:22;;;;;;;11.87;9.40;;;4.70;99.90;;;;;;5060289;28;20057;-35
2022/05/02 02:12:47;;;;;;;14.00;9.67;;;4.70;99.90;;;;;;5048318;28;20071;-35
2022/05/02 02:15:14;;;;;;;13.73;9.23;;;4.60;99.90;;;;;;5049800;28;20051;-35
2022/05/02 02:17:43;;;;;;;16.30;9.83;;;4.60;99.90;;;;;;5034040;28;20064;-35
2022/05/02 02:20:12;;;;;;;14.53;10.13;;;4.60;99.90;;;;;;5050288;28;20036;-35
2022/05/02 02:22:39;;;;;;;14.57;10.53;;;4.60;99.90;;;;;;5047608;28;20075;-35
2022/05/02 02:25:05;;;;;;;14.47;9.67;;;4.60;99.90;;;;;;5049189;28;20124;-35
2022/05/02 02:27:32;;;;;;;14.83;9.97;;;4.60;99.90;;;;;;5034132;28;20041;-35
2022/05/02 02:29:58;;;;;;;15.63;11.10;;;4.50;99.90;;;;;;5048482;28;20053;-35
2022/05/02 02:32:24;;;;;;;14.47;10.27;;;4.50;99.90;;;;;;5048417;28;20057;-35
2022/05/02 02:34:50;;;;;;;13.63;10.30;;;4.40;99.90;;;;;;5050027;28;20048;-35
2022/05/02 02:37:16;;;;;;;15.33;11.10;;;4.40;99.90;;;;;;5033746;28;20036;-35
2022/05/02 02:39:43;;;;;;;14.20;9.70;;;4.40;99.90;;;;;;5049162;28;20140;-35
2022/05/02 02:42:08;;;;;;;14.37;10.73;;;4.40;99.90;;;;;;5052076;28;20084;-36
2022/05/02 02:44:34;;;;;;;12.97;10.60;;;4.40;99.90;;;;;;5058839;28;20444;-35
2022/05/02 02:47:00;;;;;;;16.30;11.70;;;4.40;99.90;;;;;;5033934;28;20075;-35
2022/05/02 02:49:26;;;;;;;16.87;11.87;;;4.40;99.90;;;;;;5048619;28;20081;-35
2022/05/02 02:51:52;;;;;;;14.43;11.53;;;4.40;99.90;;;;;;5048689;28;20140;-35
2022/05/02 02:54:17;;;;;;;17.17;11.10;;;4.30;99.90;;;;;;5058864;28;20442;-35
2022/05/02 02:56:43;;;;;;;17.73;11.47;;;4.30;99.90;;;;;;5033434;28;20053;-35
2022/05/02 02:59:09;;;;;;;16.70;11.83;;;4.30;99.90;;;;;;5048568;28;20079;-34
2022/05/02 03:01:35;;;;;;;16.17;11.60;;;4.30;99.90;;;;;;5062605;28;20089;-35
2022/05/02 03:06:01;;;;;;;17.30;12.43;;;4.30;99.90;;;;;;5058028;28;20052;-34
2022/05/02 03:06:46;;;;;;;13.70;10.70;;;4.30;99.90;;;;;;5026737;28;20049;-35
2022/05/02 03:09:12;;;;;;;15.47;12.30;;;4.30;99.90;;;;;;5040150;28;20461;-34
2022/05/02 03:11:38;;;;;;;14.70;10.83;;;4.30;99.90;;;;;;5048741;28;20070;-34
2022/05/02 03:14:03;;;;;;;15.60;10.53;;;4.20;99.90;;;;;;5046804;28;20558;-35
2022/05/02 03:16:29;;;;;;;16.60;10.90;;;4.30;99.90;;;;;;5036230;28;20128;-34
2022/05/02 03:18:55;;;;;;;14.00;11.13;;;4.20;99.90;;;;;;5040836;28;20179;-35
2022/05/02 03:21:20;;;;;;;18.17;12.00;;;4.20;99.90;;;;;;5046884;28;20079;-34
2022/05/02 03:23:46;;;;;;;14.43;11.60;;;4.20;99.90;;;;;;5047888;28;20056;-34
2022/05/02 03:26:12;;;;;;;15.10;10.97;;;4.10;99.90;;;;;;5040552;28;20060;-35
2022/05/02 03:28:37;;;;;;;15.93;11.97;;;4.20;99.90;;;;;;5040201;28;20048;-34
2022/05/02 03:31:03;;;;;;;16.50;12.00;;;4.10;99.90;;;;;;5067691;28;20090;-35
2022/05/02 03:33:29;;;;;;;14.03;10.97;;;4.10;99.90;;;;;;5067287;28;20048;-34
2022/05/02 03:35:55;;;;;;;15.30;11.30;;;4.10;99.90;;;;;;5048040;28;20423;-34
2022/05/02 03:38:21;;;;;;;15.07;10.40;;;4.10;99.90;;;;;;5032855;28;20059;-34
2022/05/02 03:40:47;;;;;;;14.47;10.07;;;4.10;99.90;;;;;;5048457;28;20052;-34
2022/05/02 03:43:12;;;;;;;13.27;11.23;;;4.10;99.90;;;;;;5060135;28;20363;-34
2022/05/02 03:45:38;;;;;;;13.37;10.43;;;4.10;99.90;;;;;;5047961;28;20056;-34
2022/05/02 03:48:04;;;;;;;12.57;10.23;;;4.10;99.90;;;;;;5032064;28;20053;-34
2022/05/02 03:50:30;;;;;;;15.67;10.43;;;4.00;99.90;;;;;;5048243;28;20045;-34
2022/05/02 03:52:56;;;;;;;12.47;9.33;;;4.00;99.90;;;;;;5047122;28;20063;-35
2022/05/02 03:55:23;;;;;;;11.00;8.00;;;4.00;99.90;;;;;;5048352;28;20396;-34
2022/05/02 03:57:49;;;;;;;11.50;7.43;;;4.00;99.90;;;;;;5031412;28;20516;-35
2022/05/02 04:00:15;;;;;;;6.50;5.90;;;3.90;99.90;;;;;;5052125;28;20037;-34
2022/05/02 04:02:40;;;;;;;6.27;4.90;;;3.90;99.90;;;;;;5066817;28;20044;-34
2022/05/02 04:05:07;;;;;;;5.67;4.00;;;3.90;99.90;;;;;;5051782;28;20052;-34
2022/05/02 04:07:33;;;;;;;4.00;3.60;;;3.80;99.90;;;;;;5029900;28;20041;-35
2022/05/02 04:09:59;;;;;;;3.47;3.17;;;3.70;99.90;;;;;;5052175;28;20153;-35
2022/05/02 04:12:25;;;;;;;4.63;3.70;;;3.70;99.90;;;;;;5066494;28;20071;-34
2022/05/02 04:14:50;;;;;;;4.60;3.80;;;3.70;99.90;;;;;;5067850;28;20401;-34
2022/05/02 04:17:16;;;;;;;5.20;3.93;;;3.70;99.90;;;;;;5050316;28;20341;-34
2022/05/02 04:19:42;;;;;;;7.33;4.27;;;3.60;99.90;;;;;;5067661;28;20075;-34
2022/05/02 04:22:07;;;;;;;6.10;3.73;;;3.60;99.90;;;;;;5055605;28;20044;-35
2022/05/02 04:24:33;;;;;;;13.00;4.30;;;3.60;99.90;;;;;;5047381;28;20119;-34
2022/05/02 04:26:59;;;;;;;6.30;4.67;;;3.60;99.90;;;;;;5031599;28;20049;-34
2022/05/02 04:29:25;;;;;;;8.07;4.77;;;3.50;99.90;;;;;;5046425;28;20049;-34
2022/05/02 04:31:50;;;;;;;5.10;4.30;;;3.50;99.90;;;;;;5059368;28;20167;-34
2022/05/02 04:34:16;;;;;;;6.43;4.40;;;3.50;99.90;;;;;;5066386;28;20080;-34
2022/05/02 04:36:42;;;;;;;7.37;4.87;;;3.50;99.90;;;;;;5054058;28;20114;-34
2022/05/02 04:39:08;;;;;;;7.57;5.30;;;3.50;99.90;;;;;;5064496;28;20491;-34
2022/05/02 04:41:33;;;;;;;10.40;5.23;;;3.50;99.90;;;;;;5052313;28;20033;-34
2022/05/02 04:43:59;;;;;;;7.10;5.33;;;3.50;99.90;;;;;;5046363;28;20463;-34
2022/05/02 04:46:26;;;;;;;6.77;5.40;;;3.50;99.90;;;;;;5035403;28;20068;-35
2022/05/02 04:48:52;;;;;;;8.57;5.57;;;3.50;99.90;;;;;;5040978;28;20809;-34
2022/05/02 04:51:18;;;;;;;5.60;5.03;;;3.50;99.90;;;;;;5046700;28;20123;-34
2022/05/02 04:53:44;;;;;;;5.60;4.70;;;3.60;99.90;;;;;;5041621;28;20555;-34
2022/05/02 04:56:10;;;;;;;7.23;5.83;;;3.60;99.90;;;;;;5041197;28;20264;-35
2022/05/02 04:58:36;;;;;;;7.87;6.00;;;3.60;99.90;;;;;;5034951;28;20045;-34
2022/05/02 05:01:05;;;;;;;8.77;6.63;;;3.60;99.90;;;;;;5057154;28;20040;-34
2022/05/02 05:03:30;;;;;;;9.07;6.70;;;3.70;99.90;;;;;;5044572;28;20040;-34
2022/05/02 05:05:56;;;;;;;8.63;7.17;;;3.70;99.90;;;;;;5046542;28;20044;-34
2022/05/02 05:08:22;;;;;;;12.03;7.87;;;3.80;99.90;;;;;;5029919;28;20041;-35
2022/05/02 05:11:17;;;;;;;10.20;7.50;;;3.80;99.90;;;;;;5047357;28;20049;-34
2022/05/02 05:17:17;;;;;;;9.93;7.83;;;3.90;99.90;;;;;;5018509;28;20060;-35
2022/05/02 05:19:55;;;;;;;12.03;8.60;;;4.00;99.90;;;;;;5045641;28;20582;-35
2022/05/02 05:22:23;;;;;;;11.37;8.67;;;4.10;99.90;;;;;;5040087;28;20080;-34
2022/05/02 05:25:27;;;;;;;11.90;8.90;;;4.10;99.90;;;;;;5047407;28;20500;-35
2022/05/02 05:28:15;;;;;;;15.63;9.37;;;4.30;99.90;;;;;;5034033;28;20447;-35
2022/05/02 05:30:45;;;;;;;14.13;11.17;;;4.40;99.90;;;;;;5050505;28;20055;-34
2022/05/02 05:33:34;;;;;;;17.70;11.97;;;4.50;99.90;;;;;;5049878;28;20045;-35
2022/05/02 05:36:24;;;;;;;19.93;13.77;;;4.70;99.90;;;;;;5048826;28;20041;-34
2022/05/02 05:38:59;;;;;;;21.17;15.17;;;4.80;99.90;;;;;;5024832;28;20056;-35
2022/05/02 05:42:07;;;;;;;19.60;15.47;;;5.00;99.90;;;;;;5050643;28;20416;-35
2022/05/02 05:44:55;;;;;;;21.57;15.97;;;5.20;99.90;;;;;;5049203;28;20131;-35
2022/05/02 05:47:42;;;;;;;27.37;16.83;;;5.40;99.90;;;;;;5034489;28;20377;-35
2022/05/02 05:50:29;;;;;;;21.77;16.13;;;5.50;99.90;;;;;;5050694;28;20044;-35
2022/05/02 05:53:29;;;;;;;23.53;16.57;;;5.80;99.90;;;;;;5069899;28;20083;-35
2022/05/02 05:56:25;;;;;;;21.37;15.03;;;5.90;99.90;;;;;;5064524;28;20098;-35
2022/05/02 05:59:06;;;;;;;18.40;14.30;;;6.10;99.90;;;;;;5065852;28;20716;-35
2022/05/02 06:01:32;;;;;;;19.88;13.95;;;6.30;99.90;;;;;;5053199;28;20480;-35
2022/05/02 06:04:07;;;;;;;18.97;15.60;;;6.40;99.90;;;;;;5049022;28;20083;-35
2022/05/02 06:06:35;;;;;;;21.20;13.87;;;6.60;99.90;;;;;;5039823;28;20048;-35
2022/05/02 06:09:02;;;;;;;17.40;13.27;;;6.70;99.90;;;;;;5051776;28;20211;-35
2022/05/02 06:11:29;;;;;;;22.63;14.57;;;6.90;99.90;;;;;;5049638;28;20040;-35
2022/05/02 06:13:57;;;;;;;19.57;13.90;;;7.10;99.90;;;;;;5048075;28;20134;-35
2022/05/02 06:19:17;;;;;;;16.60;12.67;;;7.30;99.90;;;;;;5056639;28;20126;-35
2022/05/02 06:21:44;;;;;;;18.77;12.13;;;7.40;99.90;;;;;;5056615;28;20080;-35
2022/05/02 06:24:11;;;;;;;18.57;11.60;;;7.60;99.90;;;;;;5057987;28;20036;-35
2022/05/02 06:26:42;;;;;;;18.33;12.40;;;7.70;99.90;;;;;;5048462;28;20115;-36
2022/05/02 06:29:10;;;;;;;19.57;12.10;;;7.80;99.90;;;;;;5055041;28;20041;-36
2022/05/02 06:31:39;;;;;;;18.87;12.13;;;8.00;99.90;;;;;;5049139;28;20388;-35
2022/05/02 06:34:06;;;;;;;14.97;11.77;;;8.10;99.90;;;;;;5036310;28;20045;-36
2022/05/02 06:36:55;;;;;;;16.27;11.17;;;8.30;99.90;;;;;;5031155;28;21028;-36
2022/05/02 06:39:53;;;;;;;17.43;11.57;;;8.40;99.90;;;;;;5046148;28;20075;-35
2022/05/02 06:42:28;;;;;;;21.33;11.93;;;8.50;99.90;;;;;;5009611;28;20050;-36
2022/05/02 06:45:29;;;;;;;18.27;13.37;;;8.70;99.90;;;;;;5043352;28;20423;-36
2022/05/02 06:48:19;;;;;;;20.60;14.07;;;8.80;99.90;;;;;;5031353;28;20041;-35
2022/05/02 06:50:53;;;;;;;23.17;14.87;;;8.90;99.90;;;;;;4998971;28;20049;-36
2022/05/02 06:53:51;;;;;;;21.23;15.13;;;9.10;99.90;;;;;;5045411;28;20048;-36
2022/05/02 06:57:04;;;;;;;20.37;13.17;;;9.20;99.90;;;;;;5031385;28;20393;-36
2022/05/02 06:59:34;;;;;;;19.67;13.10;;;9.30;99.90;;;;;;4999394;28;20050;-36
2022/05/02 07:02:11;;;;;;;17.00;13.47;;;9.50;99.90;;;;;;5032396;28;20128;-36
2022/05/02 07:04:53;;;;;;;16.73;13.03;;;9.50;99.90;;;;;;5035746;28;20561;-36
2022/05/02 07:07:30;;;;;;;20.92;14.75;;;9.60;99.90;;;;;;5027101;28;20094;-36
2022/05/02 07:10:08;;;;;;;23.80;16.07;;;9.70;99.90;;;;;;5048412;28;21383;-36
2022/05/02 07:13:00;;;;;;;23.47;15.60;;;9.80;99.90;;;;;;5042057;28;20488;-36
2022/05/02 07:15:41;;;;;;;23.33;16.77;;;9.90;99.90;;;;;;5038943;28;20659;-36
2022/05/02 07:18:32;;;;;;;26.38;17.75;;;10.00;99.90;;;;;;5026700;28;20052;-37
2022/05/02 07:21:15;;;;;;;21.17;17.07;;;10.00;99.90;;;;;;5041839;28;20084;-36
2022/05/02 07:24:18;;;;;;;21.50;17.83;;;10.10;99.90;;;;;;5043390;28;20064;-36
2022/05/02 07:27:08;;;;;;;23.77;18.83;;;10.20;99.90;;;;;;5026466;28;20049;-37
2022/05/02 07:29:37;;;;;;;21.70;19.40;;;10.30;99.90;;;;;;5046275;28;20130;-36
2022/05/02 07:32:03;;;;;;;21.10;16.40;;;10.40;99.90;;;;;;5049534;28;20072;-36
2022/05/02 07:34:30;;;;;;;28.43;18.77;;;10.40;99.90;;;;;;5046126;28;20633;-36
2022/05/02 07:36:57;;;;;;;22.43;15.63;;;10.50;99.90;;;;;;5030604;28;20052;-36
2022/05/02 07:39:25;;;;;;;19.93;13.07;;;10.50;99.90;;;;;;5047575;28;20518;-36
2022/05/02 07:41:51;;;;;;;12.63;10.90;;;10.50;99.90;;;;;;5046176;28;20064;-36
2022/05/02 07:44:18;;;;;;;14.93;11.03;;;10.60;99.90;;;;;;5049160;28;20044;-36
2022/05/02 07:46:45;;;;;;;16.23;10.52;;;10.60;99.90;;;;;;5033544;28;20515;-37
2022/05/02 07:49:15;;;;;;;14.52;9.40;;;10.60;99.90;;;;;;5050043;28;20044;-36
2022/05/02 07:51:52;;;;;;;10.65;6.05;;;10.70;99.90;;;;;;5043990;28;20056;-36
2022/05/02 07:54:24;;;;;;;11.88;6.82;;;10.70;99.90;;;;;;5045207;28;20065;-36
2022/05/02 07:56:53;;;;;;;8.73;6.30;;;10.70;99.90;;;;;;5030848;28;20041;-36
2022/05/02 07:59:20;;;;;;;10.13;6.20;;;10.80;99.90;;;;;;5049204;28;20044;-36
2022/05/02 08:01:46;;;;;;;8.60;6.40;;;10.80;99.90;;;;;;5047324;28;20040;-36
2022/05/02 08:04:13;;;;;;;9.88;6.47;;;10.80;99.90;;;;;;5046765;28;20040;-36
2022/05/02 08:06:38;;;;;;;10.93;6.50;;;10.90;99.90;;;;;;5033035;28;20025;-36
2022/05/02 08:09:19;;;;;;;9.35;6.15;;;10.90;99.90;;;;;;5047623;28;20040;-36
2022/05/02 08:11:54;;;;;;;11.07;5.97;;;10.90;99.90;;;;;;5046774;28;20041;-36
2022/05/02 08:14:43;;;;;;;9.73;6.18;;;10.90;99.90;;;;;;5045410;28;20307;-36
2022/05/02 08:17:42;;;;;;;10.00;6.77;;;10.90;99.90;;;;;;5030194;28;20090;-37
2022/05/02 08:20:10;;;;;;;6.88;5.60;;;10.90;99.90;;;;;;5044078;28;20044;-36
2022/05/02 08:28:47;;;;;;;9.18;6.93;;;11.00;99.90;;;;;;5030218;28;20432;-36
2022/05/02 08:31:46;;;;;;;10.57;6.68;;;11.00;99.90;;;;;;5044100;28;20057;-37
2022/05/02 08:34:35;;;;;;;10.45;6.93;;;11.00;99.90;;;;;;5044008;28;20079;-36
2022/05/02 08:37:13;;;;;;;9.98;7.05;;;11.10;99.90;;;;;;5030518;28;20050;-36
2022/05/02 08:40:00;;;;;;;10.25;7.55;;;11.10;99.90;;;;;;5045556;28;20036;-36
2022/05/02 08:42:57;;;;;;;10.30;7.20;;;11.20;99.90;;;;;;5042116;28;20057;-36
2022/05/02 08:45:46;;;;;;;10.90;7.32;;;11.20;99.90;;;;;;5042359;28;20460;-36
2022/05/02 08:48:32;;;;;;;9.98;7.35;;;11.20;99.90;;;;;;5026505;28;20056;-36
2022/05/02 08:51:16;;;;;;;13.07;7.43;;;11.30;99.90;;;;;;5047317;28;20507;-36
2022/05/02 08:54:18;;;;;;;9.88;7.05;;;11.30;99.90;;;;;;5045794;28;20415;-36
2022/05/02 08:57:05;;;;;;;12.30;7.55;;;11.40;99.90;;;;;;4986780;28;20053;-37
2022/05/02 08:59:54;;;;;;;8.70;7.30;;;11.40;99.90;;;;;;5024010;28;20474;-36
2022/05/02 09:02:43;;;;;;;9.90;7.70;;;11.40;99.90;;;;;;5036534;28;20041;-36
2022/05/02 09:05:33;;;;;;;10.52;7.43;;;11.50;99.90;;;;;;5050506;28;20053;-36
2022/05/02 09:08:34;;;;;;;10.05;7.28;;;11.60;99.90;;;;;;5011123;28;20516;-36
2022/05/02 09:11:31;;;;;;;11.23;7.67;;;11.60;99.90;;;;;;5045227;28;20053;-36
2022/05/02 09:14:18;;;;;;;12.00;7.20;;;11.60;99.90;;;;;;5045468;28;20379;-37
2022/05/02 09:16:49;;;;;;;12.43;7.65;;;11.70;99.90;;;;;;5032574;28;20037;-37
2022/05/02 09:19:34;;;;;;;11.55;8.20;;;11.70;99.90;;;;;;5050867;28;20432;-36
2022/05/02 09:22:19;;;;;;;9.60;7.50;;;11.80;99.90;;;;;;5049247;28;20525;-37
2022/05/02 09:25:03;;;;;;;8.98;7.38;;;11.80;99.90;;;;;;5049506;28;20091;-36
2022/05/02 09:27:36;;;;;;;9.10;7.13;;;11.90;99.90;;;;;;5035082;28;20051;-37
2022/05/02 09:30:36;;;;;;;10.10;7.35;;;11.90;99.90;;;;;;5041665;28;20136;-36
2022/05/02 09:33:05;;;;;;;9.43;6.93;;;12.00;99.90;;;;;;5045112;28;20573;-36
2022/05/02 09:35:40;;;;;;;8.75;7.22;;;12.00;99.90;;;;;;5044873;28;20045;-36
2022/05/02 09:38:26;;;;;;;9.80;7.15;;;12.10;99.90;;;;;;5032937;28;20507;-36
2022/05/02 09:41:00;;;;;;;10.45;6.82;;;12.10;99.90;;;;;;5044796;28;20115;-37
2022/05/02 09:50:18;;;;;;;10.77;6.75;;;12.20;99.90;;;;;;5047113;28;20067;-37
2022/05/02 09:53:03;;;;;;;10.88;7.15;;;12.30;99.90;;;;;;5048260;28;20075;-37
2022/05/02 09:58:55;;;;;;;12.88;6.22;;;12.30;99.90;;;;;;5037038;28;20044;-36
2022/05/02 10:01:31;;;;;;;11.60;6.43;;;12.30;99.90;;;;;;5046938;28;20131;-36
2022/05/02 10:04:18;;;;;;;11.38;6.30;;;12.40;99.90;;;;;;5049425;28;20360;-36
2022/05/02 10:06:55;;;;;;;8.68;6.30;;;12.50;99.90;;;;;;5033081;28;20045;-37
2022/05/02 10:09:32;;;;;;;8.15;5.60;;;12.60;99.90;;;;;;5051239;28;20037;-37
2022/05/02 10:12:17;;;;;;;7.70;6.05;;;12.60;99.90;;;;;;5045529;28;20049;-36
2022/05/02 10:14:51;;;;;;;10.98;6.50;;;12.60;99.90;;;;;;5046571;28;20404;-37
2022/05/02 10:18:00;;;;;;;8.32;6.10;;;12.60;99.90;;;;;;5031617;28;20348;-37
2022/05/02 10:20:44;;;;;;;12.48;5.60;;;12.70;99.90;;;;;;5045848;28;20061;-37
2022/05/02 10:23:34;;;;;;;8.77;5.75;;;12.70;99.90;;;;;;5046942;28;20037;-36
2022/05/02 10:26:09;;;;;;;8.45;5.45;;;12.80;99.90;;;;;;5045851;28;20061;-36
2022/05/02 10:29:22;;;;;;;7.93;5.20;;;12.80;99.90;;;;;;5036929;28;20049;-37
2022/05/02 10:32:04;;;;;;;6.57;5.20;;;12.90;99.90;;;;;;5003478;28;20058;-37
2022/05/02 10:34:32;;;;;;;7.40;5.13;;;12.90;99.90;;;;;;5042572;28;20110;-37
2022/05/02 10:37:03;;;;;;;8.05;5.10;;;12.90;99.90;;;;;;5031550;28;20340;-36
2022/05/02 10:39:40;;;;;;;7.93;5.20;;;12.90;99.90;;;;;;5045924;28;20049;-37
2022/05/02 10:42:08;;;;;;;7.57;5.10;;;13.00;99.90;;;;;;5046833;28;20072;-37
2022/05/02 10:44:49;;;;;;;6.00;4.47;;;13.10;99.90;;;;;;5048797;28;20043;-36
2022/05/02 10:47:18;;;;;;;7.75;4.63;;;13.20;99.90;;;;;;5030530;28;20446;-37
2022/05/02 10:50:05;;;;;;;5.93;4.43;;;13.30;99.90;;;;;;5047220;28;20059;-37
2022/05/02 10:53:08;;;;;;;6.75;4.70;;;13.30;99.90;;;;;;5048481;28;20144;-37
2022/05/02 10:55:39;;;;;;;5.38;4.43;;;13.40;99.90;;;;;;5043568;28;20447;-37
2022/05/02 10:58:10;;;;;;;6.60;4.40;;;13.50;99.90;;;;;;5028743;28;20512;-37
2022/05/02 11:01:04;;;;;;;5.80;4.10;;;13.60;99.90;;;;;;5045475;28;20053;-37
2022/05/02 11:03:44;;;;;;;6.35;4.55;;;13.60;99.90;;;;;;5045598;28;20048;-37
2022/05/02 11:06:24;;;;;;;6.65;4.63;;;13.70;99.90;;;;;;5038446;28;20678;-38
2022/05/02 11:08:53;;;;;;;6.93;4.15;;;13.70;99.90;;;;;;5039179;28;20079;-37
2022/05/02 11:11:27;;;;;;;6.70;3.50;;;13.90;99.90;;;;;;5045850;28;20052;-37
2022/05/02 11:14:23;;;;;;;5.55;3.90;;;13.90;99.90;;;;;;5044094;28;20044;-37
2022/05/02 11:16:51;;;;;;;7.60;4.00;;;14.00;99.90;;;;;;5035429;28;20072;-37
2022/05/02 11:22:31;;;;;;;6.72;4.20;;;14.20;99.90;;;;;;5043583;28;20052;-37
2022/05/02 11:25:06;;;;;;;5.97;4.07;;;14.30;99.90;;;;;;5047006;28;20114;-37
2022/05/02 11:27:43;;;;;;;6.97;4.28;;;14.30;99.90;;;;;;5031428;28;20468;-37
2022/05/02 11:30:11;;;;;;;5.18;3.80;;;14.50;99.90;;;;;;5045588;28;20085;-37
2022/05/02 11:33:04;;;;;;;6.93;4.03;;;14.60;99.90;;;;;;5044695;28;20503;-37
2022/05/02 11:35:31;;;;;;;4.85;3.90;;;14.70;99.90;;;;;;5044012;28;21108;-37
2022/05/02 11:38:09;;;;;;;5.32;3.67;;;14.80;99.90;;;;;;5033233;28;20064;-37
2022/05/02 11:40:45;;;;;;;7.05;3.85;;;14.90;99.90;;;;;;5046058;28;20045;-37
2022/05/02 11:43:18;;;;;;;6.43;4.40;;;15.00;99.90;;;;;;5054882;28;20427;-37
2022/05/02 11:46:08;;;;;;;6.30;4.25;;;15.10;99.90;;;;;;5044458;28;20108;-37
2022/05/02 11:49:04;;;;;;;7.68;4.68;;;15.20;99.90;;;;;;5034876;28;20052;-37
2022/05/02 11:51:30;;;;;;;7.75;4.38;;;15.30;99.90;;;;;;5037676;28;20053;-37
2022/05/02 11:53:58;;;;;;;5.65;4.05;;;15.30;99.90;;;;;;5042746;28;20095;-37
2022/05/02 11:56:39;;;;;;;9.07;4.18;;;15.30;99.90;;;;;;5032670;28;20041;-38
2022/05/02 11:59:11;;;;;;;7.20;4.72;;;15.40;99.90;;;;;;5040790;28;20052;-37
2022/05/02 12:01:41;;;;;;;7.90;4.57;;;15.40;99.90;;;;;;5045085;28;20404;-37
2022/05/02 12:04:08;;;;;;;7.88;4.65;;;15.50;99.90;;;;;;5043899;28;20087;-37
2022/05/02 12:06:48;;;;;;;10.30;5.15;;;15.50;99.90;;;;;;5032858;28;20430;-37
2022/05/02 12:09:24;;;;;;;5.53;4.63;;;15.60;99.90;;;;;;5047346;28;20148;-37
2022/05/02 12:11:58;;;;;;;6.60;4.55;;;15.60;99.90;;;;;;5043823;28;20056;-37
2022/05/02 12:14:25;;;;;;;6.22;4.93;;;15.70;99.90;;;;;;5046065;28;20377;-37
2022/05/02 12:17:12;;;;;;;8.35;4.60;;;15.70;99.90;;;;;;5028118;28;20086;-37
2022/05/02 12:19:39;;;;;;;5.93;4.40;;;15.70;99.90;;;;;;5046046;28;20091;-37
2022/05/02 12:22:16;;;;;;;6.00;4.07;;;15.80;99.90;;;;;;5048397;28;20037;-37
2022/05/02 12:24:45;;;;;;;5.80;4.88;;;15.90;99.90;;;;;;5044743;28;20076;-37
2022/05/02 12:27:14;;;;;;;7.65;4.53;;;15.90;99.90;;;;;;5029780;28;20047;-37
2022/05/02 12:29:42;;;;;;;6.82;4.85;;;16.00;99.90;;;;;;5044559;28;20080;-37
2022/05/02 12:32:09;;;;;;;7.70;4.50;;;16.10;99.90;;;;;;5044010;28;20052;-37
2022/05/02 12:34:47;;;;;;;8.60;4.72;;;16.10;99.90;;;;;;5049876;28;20075;-37
2022/05/02 12:37:23;;;;;;;7.60;4.70;;;16.20;99.90;;;;;;5036021;28;20052;-37
2022/05/02 12:40:05;;;;;;;6.70;4.72;;;16.20;99.90;;;;;;5048137;28;20033;-37
2022/05/02 12:43:03;;;;;;;7.03;5.22;;;16.30;99.90;;;;;;5046753;28;20056;-37
2022/05/02 12:45:47;;;;;;;9.20;5.10;;;16.30;99.90;;;;;;5046273;28;20045;-37
2022/05/02 12:48:48;;;;;;;5.50;4.70;;;16.40;99.90;;;;;;5034202;28;20453;-37
2022/05/02 12:51:21;;;;;;;5.45;4.30;;;16.40;99.90;;;;;;5054322;28;20067;-37
2022/05/02 12:56:31;;;;;;;7.80;4.32;;;16.60;99.90;;;;;;5034712;28;20053;-38
2022/05/02 13:01:48;;;;;;;7.50;5.18;;;16.80;99.90;;;;;;5055156;28;20636;-37
2022/05/02 13:04:19;;;;;;;7.90;5.03;;;16.90;99.90;;;;;;5049695;28;20413;-38
2022/05/02 13:06:45;;;;;;;;;;;16.90;99.90;;;;;;5034740;28;20037;-37
2022/05/02 13:09:16;;;;;;;6.60;4.93;;;16.90;99.90;;;;;;5050840;28;19944;-38
2022/05/02 13:11:43;;;;;;;5.45;4.70;;;16.90;99.90;;;;;;5046471;28;20427;-38
2022/05/02 13:14:23;;;;;;;7.68;4.97;;;17.00;99.90;;;;;;5049207;28;20511;-38
2022/05/02 13:16:49;;;;;;;5.65;4.72;;;17.00;99.90;;;;;;5035359;28;20049;-37
2022/05/02 13:19:15;;;;;;;5.78;4.47;;;17.10;99.90;;;;;;5044452;28;20049;-38
2022/05/02 13:21:41;;;;;;;5.88;3.85;;;17.20;99.90;;;;;;5050614;28;20503;-37
2022/05/02 13:24:09;;;;;;;6.05;4.50;;;17.20;99.90;;;;;;5052697;28;20084;-37
2022/05/02 13:26:47;;;;;;;7.28;4.70;;;17.30;99.90;;;;;;5033974;28;20053;-38
2022/05/02 13:29:35;;;;;;;8.85;4.88;;;17.40;99.90;;;;;;5050336;28;20049;-38
2022/05/02 13:32:15;;;;;;;4.90;4.22;;;17.40;99.90;;;;;;5049596;28;20056;-37
2022/05/02 13:34:51;;;;;;;5.35;4.40;;;17.40;99.90;;;;;;5045074;28;20427;-38
2022/05/02 13:37:39;;;;;;;7.65;4.40;;;17.20;99.90;;;;;;5033661;28;20040;-38
2022/05/02 13:40:15;;;;;;;5.90;4.20;;;17.50;99.90;;;;;;5050727;28;20496;-38
2022/05/02 13:43:05;;;;;;;6.22;4.15;;;17.50;99.90;;;;;;5048180;28;20135;-38
2022/05/02 13:45:32;;;;;;;6.70;4.57;;;17.60;99.90;;;;;;5048391;28;20550;-37
2022/05/02 13:48:13;;;;;;;6.25;4.25;;;17.60;99.90;;;;;;5030073;28;20202;-38
2022/05/02 13:51:04;;;;;;;9.45;4.03;;;17.60;99.90;;;;;;5048095;28;20044;-38
2022/05/02 13:53:48;;;;;;;5.72;3.67;;;17.70;99.90;;;;;;5046305;28;20036;-38